sensor_id;sensor_type;location;lat;lon;timestamp;P1;durP1;ratioP1;P2;durP2;ratioP2
2011;SDS011;1009;51.436;6.972;2022-12-18T00:00:06;9.77;;;6.30;;
2011;SDS011;1009;51.436;6.972;2022-12-18T00:02:34;10.33;;;7.27;;
2011;SDS011;1009;51.436;6.972;2022-12-18T00:05:02;6.90;;;5.97;;
2011;SDS011;1009;51.436;6.972;2022-12-18T00:07:29;7.40;;;5.87;;
2011;SDS011;1009;51.436;6.972;2022-12-18T00:09:56;9.47;;;6.07;;
2011;SDS011;1009;51.436;6.972;2022-12-18T00:12:22;10.10;;;6.73;;
2011;SDS011;1009;51.436;6.972;2022-12-18T00:14:49;9.03;;;7.10;;
2011;SDS011;1009;51.436;6.972;2022-12-18T00:17:16;8.97;;;6.40;;
2011;SDS011;1009;51.436;6.972;2022-12-18T00:19:43;12.30;;;7.03;;
2011;SDS011;1009;51.436;6.972;2022-12-18T00:22:11;8.73;;;6.57;;
2011;SDS011;1009;51.436;6.972;2022-12-18T00:24:38;8.80;;;6.70;;
2011;SDS011;1009;51.436;6.972;2022-12-18T00:27:04;8.93;;;7.17;;
2011;SDS011;1009;51.436;6.972;2022-12-18T00:29:31;9.40;;;6.90;;
2011;SDS011;1009;51.436;6.972;2022-12-18T00:31:58;9.00;;;6.63;;
2011;SDS011;1009;51.436;6.972;2022-12-18T00:34:25;9.63;;;7.30;;
2011;SDS011;1009;51.436;6.972;2022-12-18T00:36:51;10.57;;;7.20;;
2011;SDS011;1009;51.436;6.972;2022-12-18T00:39:19;8.43;;;7.53;;
2011;SDS011;1009;51.436;6.972;2022-12-18T00:41:46;10.07;;;7.70;;
2011;SDS011;1009;51.436;6.972;2022-12-18T00:44:30;8.80;;;7.27;;
2011;SDS011;1009;51.436;6.972;2022-12-18T00:46:58;9.87;;;7.33;;
2011;SDS011;1009;51.436;6.972;2022-12-18T00:49:25;9.13;;;7.43;;
2011;SDS011;1009;51.436;6.972;2022-12-18T00:51:51;10.00;;;7.60;;
2011;SDS011;1009;51.436;6.972;2022-12-18T00:54:19;10.53;;;8.13;;
2011;SDS011;1009;51.436;6.972;2022-12-18T00:56:46;11.70;;;7.30;;
2011;SDS011;1009;51.436;6.972;2022-12-18T00:59:13;14.77;;;11.33;;
2011;SDS011;1009;51.436;6.972;2022-12-18T01:01:39;23.77;;;16.43;;
2011;SDS011;1009;51.436;6.972;2022-12-18T01:04:06;28.53;;;19.23;;
2011;SDS011;1009;51.436;6.972;2022-12-18T01:06:33;15.03;;;10.60;;
2011;SDS011;1009;51.436;6.972;2022-12-18T01:08:59;18.47;;;15.20;;
2011;SDS011;1009;51.436;6.972;2022-12-18T01:11:27;17.10;;;12.17;;
2011;SDS011;1009;51.436;6.972;2022-12-18T01:13:54;14.37;;;12.33;;
2011;SDS011;1009;51.436;6.972;2022-12-18T01:16:21;9.37;;;7.07;;
2011;SDS011;1009;51.436;6.972;2022-12-18T01:18:50;12.00;;;8.70;;
2011;SDS011;1009;51.436;6.972;2022-12-18T01:21:17;13.77;;;8.60;;
2011;SDS011;1009;51.436;6.972;2022-12-18T01:23:44;12.90;;;8.80;;
2011;SDS011;1009;51.436;6.972;2022-12-18T01:26:14;9.00;;;7.20;;
2011;SDS011;1009;51.436;6.972;2022-12-18T01:28:42;9.00;;;6.77;;
2011;SDS011;1009;51.436;6.972;2022-12-18T01:31:14;9.50;;;7.13;;
2011;SDS011;1009;51.436;6.972;2022-12-18T01:33:43;7.17;;;6.07;;
2011;SDS011;1009;51.436;6.972;2022-12-18T01:36:14;10.53;;;7.73;;
2011;SDS011;1009;51.436;6.972;2022-12-18T01:38:42;11.43;;;7.43;;
2011;SDS011;1009;51.436;6.972;2022-12-18T01:41:09;10.97;;;7.70;;
2011;SDS011;1009;51.436;6.972;2022-12-18T01:43:48;9.50;;;6.97;;
2011;SDS011;1009;51.436;6.972;2022-12-18T01:46:17;9.30;;;6.53;;
2011;SDS011;1009;51.436;6.972;2022-12-18T01:48:46;7.23;;;6.40;;
2011;SDS011;1009;51.436;6.972;2022-12-18T01:51:16;10.07;;;6.50;;
2011;SDS011;1009;51.436;6.972;2022-12-18T01:53:44;7.83;;;6.40;;
2011;SDS011;1009;51.436;6.972;2022-12-18T01:56:12;7.70;;;6.87;;
2011;SDS011;1009;51.436;6.972;2022-12-18T01:58:41;8.70;;;6.73;;
2011;SDS011;1009;51.436;6.972;2022-12-18T02:01:14;8.17;;;6.40;;
2011;SDS011;1009;51.436;6.972;2022-12-18T02:03:42;8.40;;;7.37;;
2011;SDS011;1009;51.436;6.972;2022-12-18T02:06:10;8.00;;;6.30;;
2011;SDS011;1009;51.436;6.972;2022-12-18T02:08:43;11.20;;;6.70;;
2011;SDS011;1009;51.436;6.972;2022-12-18T02:11:18;10.23;;;6.80;;
2011;SDS011;1009;51.436;6.972;2022-12-18T02:13:57;10.57;;;6.80;;
2011;SDS011;1009;51.436;6.972;2022-12-18T02:16:31;10.13;;;6.20;;
2011;SDS011;1009;51.436;6.972;2022-12-18T02:19:06;8.97;;;6.73;;
2011;SDS011;1009;51.436;6.972;2022-12-18T02:21:44;11.00;;;7.87;;
2011;SDS011;1009;51.436;6.972;2022-12-18T02:24:17;9.10;;;7.10;;
2011;SDS011;1009;51.436;6.972;2022-12-18T02:26:55;8.87;;;6.70;;
2011;SDS011;1009;51.436;6.972;2022-12-18T02:29:25;9.00;;;6.73;;
2011;SDS011;1009;51.436;6.972;2022-12-18T02:31:56;9.33;;;6.97;;
2011;SDS011;1009;51.436;6.972;2022-12-18T02:34:26;9.80;;;6.67;;
2011;SDS011;1009;51.436;6.972;2022-12-18T02:36:55;7.33;;;6.10;;
2011;SDS011;1009;51.436;6.972;2022-12-18T02:39:26;9.70;;;7.53;;
2011;SDS011;1009;51.436;6.972;2022-12-18T02:41:56;7.53;;;6.27;;
2011;SDS011;1009;51.436;6.972;2022-12-18T02:44:23;11.33;;;7.97;;
2011;SDS011;1009;51.436;6.972;2022-12-18T02:46:50;8.13;;;5.50;;
2011;SDS011;1009;51.436;6.972;2022-12-18T02:49:21;7.80;;;5.83;;
2011;SDS011;1009;51.436;6.972;2022-12-18T02:51:59;8.17;;;6.97;;
2011;SDS011;1009;51.436;6.972;2022-12-18T02:54:34;9.40;;;7.07;;
2011;SDS011;1009;51.436;6.972;2022-12-18T02:57:12;6.97;;;5.70;;
2011;SDS011;1009;51.436;6.972;2022-12-18T02:59:45;9.37;;;6.80;;
2011;SDS011;1009;51.436;6.972;2022-12-18T03:02:17;8.03;;;6.23;;
2011;SDS011;1009;51.436;6.972;2022-12-18T03:04:50;6.70;;;6.00;;
2011;SDS011;1009;51.436;6.972;2022-12-18T03:07:28;8.13;;;6.20;;
2011;SDS011;1009;51.436;6.972;2022-12-18T03:10:01;8.17;;;6.50;;
2011;SDS011;1009;51.436;6.972;2022-12-18T03:12:31;7.37;;;6.07;;
2011;SDS011;1009;51.436;6.972;2022-12-18T03:15:02;9.57;;;6.70;;
2011;SDS011;1009;51.436;6.972;2022-12-18T03:17:34;9.63;;;7.03;;
2011;SDS011;1009;51.436;6.972;2022-12-18T03:20:03;8.23;;;6.60;;
2011;SDS011;1009;51.436;6.972;2022-12-18T03:22:33;8.57;;;6.93;;
2011;SDS011;1009;51.436;6.972;2022-12-18T03:25:03;9.03;;;6.57;;
2011;SDS011;1009;51.436;6.972;2022-12-18T03:27:35;9.53;;;6.70;;
2011;SDS011;1009;51.436;6.972;2022-12-18T03:30:05;8.90;;;7.13;;
2011;SDS011;1009;51.436;6.972;2022-12-18T03:32:36;10.30;;;7.80;;
2011;SDS011;1009;51.436;6.972;2022-12-18T03:35:08;11.40;;;7.33;;
2011;SDS011;1009;51.436;6.972;2022-12-18T03:37:36;8.03;;;6.83;;
2011;SDS011;1009;51.436;6.972;2022-12-18T03:40:04;9.40;;;8.07;;
2011;SDS011;1009;51.436;6.972;2022-12-18T03:42:32;9.10;;;7.23;;
2011;SDS011;1009;51.436;6.972;2022-12-18T03:45:08;11.97;;;8.10;;
2011;SDS011;1009;51.436;6.972;2022-12-18T03:47:39;12.17;;;8.20;;
2011;SDS011;1009;51.436;6.972;2022-12-18T03:50:13;9.73;;;6.70;;
2011;SDS011;1009;51.436;6.972;2022-12-18T03:52:46;11.50;;;7.70;;
2011;SDS011;1009;51.436;6.972;2022-12-18T03:55:17;10.50;;;8.17;;
2011;SDS011;1009;51.436;6.972;2022-12-18T03:57:47;12.00;;;8.20;;
2011;SDS011;1009;51.436;6.972;2022-12-18T04:00:17;10.03;;;7.97;;
2011;SDS011;1009;51.436;6.972;2022-12-18T04:02:46;8.90;;;7.97;;
2011;SDS011;1009;51.436;6.972;2022-12-18T04:05:16;9.90;;;7.73;;
2011;SDS011;1009;51.436;6.972;2022-12-18T04:07:44;10.33;;;8.20;;
2011;SDS011;1009;51.436;6.972;2022-12-18T04:10:13;14.20;;;10.63;;
2011;SDS011;1009;51.436;6.972;2022-12-18T04:12:42;10.27;;;9.17;;
2011;SDS011;1009;51.436;6.972;2022-12-18T04:15:10;13.80;;;9.90;;
2011;SDS011;1009;51.436;6.972;2022-12-18T04:17:38;14.97;;;10.90;;
2011;SDS011;1009;51.436;6.972;2022-12-18T04:20:09;17.37;;;12.30;;
2011;SDS011;1009;51.436;6.972;2022-12-18T04:22:36;20.17;;;14.50;;
2011;SDS011;1009;51.436;6.972;2022-12-18T04:25:03;15.47;;;10.77;;
2011;SDS011;1009;51.436;6.972;2022-12-18T04:27:30;22.10;;;17.03;;
2011;SDS011;1009;51.436;6.972;2022-12-18T04:29:57;22.80;;;15.93;;
2011;SDS011;1009;51.436;6.972;2022-12-18T04:32:25;14.07;;;9.80;;
2011;SDS011;1009;51.436;6.972;2022-12-18T04:34:52;18.60;;;13.00;;
2011;SDS011;1009;51.436;6.972;2022-12-18T04:37:18;20.87;;;16.33;;
2011;SDS011;1009;51.436;6.972;2022-12-18T04:39:45;30.07;;;23.53;;
2011;SDS011;1009;51.436;6.972;2022-12-18T04:42:12;25.83;;;18.90;;
2011;SDS011;1009;51.436;6.972;2022-12-18T04:44:39;31.77;;;22.67;;
2011;SDS011;1009;51.436;6.972;2022-12-18T04:47:06;23.20;;;17.40;;
2011;SDS011;1009;51.436;6.972;2022-12-18T04:49:34;24.63;;;19.97;;
2011;SDS011;1009;51.436;6.972;2022-12-18T04:52:01;27.33;;;21.13;;
2011;SDS011;1009;51.436;6.972;2022-12-18T04:54:28;25.43;;;19.10;;
2011;SDS011;1009;51.436;6.972;2022-12-18T04:56:55;26.60;;;21.50;;
2011;SDS011;1009;51.436;6.972;2022-12-18T04:59:21;32.97;;;21.33;;
2011;SDS011;1009;51.436;6.972;2022-12-18T05:01:48;27.03;;;20.30;;
2011;SDS011;1009;51.436;6.972;2022-12-18T05:04:15;18.30;;;13.70;;
2011;SDS011;1009;51.436;6.972;2022-12-18T05:06:43;32.57;;;23.87;;
2011;SDS011;1009;51.436;6.972;2022-12-18T05:09:10;36.87;;;25.97;;
2011;SDS011;1009;51.436;6.972;2022-12-18T05:11:36;33.73;;;24.50;;
2011;SDS011;1009;51.436;6.972;2022-12-18T05:14:03;33.10;;;24.27;;
2011;SDS011;1009;51.436;6.972;2022-12-18T05:16:30;20.80;;;14.90;;
2011;SDS011;1009;51.436;6.972;2022-12-18T05:18:56;27.13;;;17.90;;
2011;SDS011;1009;51.436;6.972;2022-12-18T05:21:23;15.00;;;10.83;;
2011;SDS011;1009;51.436;6.972;2022-12-18T05:23:51;8.77;;;7.10;;
2011;SDS011;1009;51.436;6.972;2022-12-18T05:26:18;11.00;;;7.80;;
2011;SDS011;1009;51.436;6.972;2022-12-18T05:28:45;7.90;;;5.90;;
2011;SDS011;1009;51.436;6.972;2022-12-18T05:31:12;9.07;;;6.87;;
2011;SDS011;1009;51.436;6.972;2022-12-18T05:33:39;12.57;;;8.53;;
2011;SDS011;1009;51.436;6.972;2022-12-18T05:36:07;15.77;;;11.63;;
2011;SDS011;1009;51.436;6.972;2022-12-18T05:38:37;13.00;;;10.73;;
2011;SDS011;1009;51.436;6.972;2022-12-18T05:41:06;23.53;;;16.83;;
2011;SDS011;1009;51.436;6.972;2022-12-18T05:43:34;15.33;;;12.80;;
2011;SDS011;1009;51.436;6.972;2022-12-18T05:46:03;32.40;;;23.60;;
2011;SDS011;1009;51.436;6.972;2022-12-18T05:48:31;29.93;;;21.63;;
2011;SDS011;1009;51.436;6.972;2022-12-18T05:51:02;23.30;;;18.13;;
2011;SDS011;1009;51.436;6.972;2022-12-18T05:53:31;25.10;;;19.80;;
2011;SDS011;1009;51.436;6.972;2022-12-18T05:55:59;27.10;;;21.30;;
2011;SDS011;1009;51.436;6.972;2022-12-18T05:58:29;42.00;;;30.17;;
2011;SDS011;1009;51.436;6.972;2022-12-18T06:00:56;40.53;;;28.60;;
2011;SDS011;1009;51.436;6.972;2022-12-18T06:03:23;34.00;;;23.13;;
2011;SDS011;1009;51.436;6.972;2022-12-18T06:05:50;30.67;;;25.70;;
2011;SDS011;1009;51.436;6.972;2022-12-18T06:08:17;39.10;;;25.77;;
2011;SDS011;1009;51.436;6.972;2022-12-18T06:10:49;33.97;;;22.93;;
2011;SDS011;1009;51.436;6.972;2022-12-18T06:13:17;42.67;;;27.37;;
2011;SDS011;1009;51.436;6.972;2022-12-18T06:15:45;34.37;;;25.93;;
2011;SDS011;1009;51.436;6.972;2022-12-18T06:18:11;37.13;;;27.33;;
2011;SDS011;1009;51.436;6.972;2022-12-18T06:20:38;25.17;;;18.67;;
2011;SDS011;1009;51.436;6.972;2022-12-18T06:23:06;25.63;;;18.53;;
2011;SDS011;1009;51.436;6.972;2022-12-18T06:25:33;24.77;;;16.70;;
2011;SDS011;1009;51.436;6.972;2022-12-18T06:28:02;24.30;;;17.10;;
2011;SDS011;1009;51.436;6.972;2022-12-18T06:30:29;23.07;;;17.30;;
2011;SDS011;1009;51.436;6.972;2022-12-18T06:32:57;29.50;;;19.20;;
2011;SDS011;1009;51.436;6.972;2022-12-18T06:35:24;28.70;;;17.47;;
2011;SDS011;1009;51.436;6.972;2022-12-18T06:37:50;26.63;;;18.93;;
2011;SDS011;1009;51.436;6.972;2022-12-18T06:40:17;24.20;;;16.67;;
2011;SDS011;1009;51.436;6.972;2022-12-18T06:42:44;26.80;;;19.63;;
2011;SDS011;1009;51.436;6.972;2022-12-18T06:45:11;28.27;;;18.30;;
2011;SDS011;1009;51.436;6.972;2022-12-18T06:47:37;24.27;;;18.87;;
2011;SDS011;1009;51.436;6.972;2022-12-18T06:50:06;26.60;;;19.03;;
2011;SDS011;1009;51.436;6.972;2022-12-18T06:52:33;20.20;;;15.30;;
2011;SDS011;1009;51.436;6.972;2022-12-18T06:55:00;21.87;;;16.87;;
2011;SDS011;1009;51.436;6.972;2022-12-18T06:57:27;23.53;;;13.07;;
2011;SDS011;1009;51.436;6.972;2022-12-18T06:59:53;25.60;;;16.60;;
2011;SDS011;1009;51.436;6.972;2022-12-18T07:02:20;17.67;;;13.20;;
2011;SDS011;1009;51.436;6.972;2022-12-18T07:04:47;18.57;;;13.10;;
2011;SDS011;1009;51.436;6.972;2022-12-18T07:07:15;17.03;;;11.83;;
2011;SDS011;1009;51.436;6.972;2022-12-18T07:09:42;16.07;;;10.53;;
2011;SDS011;1009;51.436;6.972;2022-12-18T07:12:09;11.63;;;8.43;;
2011;SDS011;1009;51.436;6.972;2022-12-18T07:14:35;12.10;;;7.77;;
2011;SDS011;1009;51.436;6.972;2022-12-18T07:17:02;11.17;;;7.50;;
2011;SDS011;1009;51.436;6.972;2022-12-18T07:19:29;6.50;;;4.80;;
2011;SDS011;1009;51.436;6.972;2022-12-18T07:21:55;8.63;;;5.30;;
2011;SDS011;1009;51.436;6.972;2022-12-18T07:24:23;4.93;;;4.00;;
2011;SDS011;1009;51.436;6.972;2022-12-18T07:26:50;6.27;;;4.50;;
2011;SDS011;1009;51.436;6.972;2022-12-18T07:29:17;5.77;;;4.50;;
2011;SDS011;1009;51.436;6.972;2022-12-18T07:31:44;8.20;;;5.17;;
2011;SDS011;1009;51.436;6.972;2022-12-18T07:34:11;9.53;;;4.90;;
2011;SDS011;1009;51.436;6.972;2022-12-18T07:36:38;6.73;;;4.53;;
2011;SDS011;1009;51.436;6.972;2022-12-18T07:39:04;6.87;;;4.73;;
2011;SDS011;1009;51.436;6.972;2022-12-18T07:41:32;6.50;;;4.43;;
2011;SDS011;1009;51.436;6.972;2022-12-18T07:43:59;6.37;;;4.37;;
2011;SDS011;1009;51.436;6.972;2022-12-18T07:46:26;7.20;;;4.60;;
2011;SDS011;1009;51.436;6.972;2022-12-18T07:48:53;6.00;;;4.03;;
2011;SDS011;1009;51.436;6.972;2022-12-18T07:51:19;5.33;;;4.10;;
2011;SDS011;1009;51.436;6.972;2022-12-18T07:53:46;7.93;;;4.60;;
2011;SDS011;1009;51.436;6.972;2022-12-18T07:56:13;8.70;;;5.57;;
2011;SDS011;1009;51.436;6.972;2022-12-18T07:58:41;7.10;;;4.90;;
2011;SDS011;1009;51.436;6.972;2022-12-18T08:01:10;7.37;;;4.60;;
2011;SDS011;1009;51.436;6.972;2022-12-18T08:03:38;14.63;;;10.53;;
2011;SDS011;1009;51.436;6.972;2022-12-18T08:06:06;16.00;;;12.07;;
2011;SDS011;1009;51.436;6.972;2022-12-18T08:08:34;18.77;;;14.50;;
2011;SDS011;1009;51.436;6.972;2022-12-18T08:11:01;13.80;;;8.57;;
2011;SDS011;1009;51.436;6.972;2022-12-18T08:13:28;11.53;;;9.10;;
2011;SDS011;1009;51.436;6.972;2022-12-18T08:15:57;8.40;;;6.03;;
2011;SDS011;1009;51.436;6.972;2022-12-18T08:18:24;6.00;;;4.40;;
2011;SDS011;1009;51.436;6.972;2022-12-18T08:20:51;5.00;;;3.93;;
2011;SDS011;1009;51.436;6.972;2022-12-18T08:23:18;6.10;;;4.23;;
2011;SDS011;1009;51.436;6.972;2022-12-18T08:25:45;6.50;;;4.03;;
2011;SDS011;1009;51.436;6.972;2022-12-18T08:28:26;5.43;;;3.90;;
2011;SDS011;1009;51.436;6.972;2022-12-18T08:30:53;5.60;;;3.90;;
2011;SDS011;1009;51.436;6.972;2022-12-18T08:33:21;4.60;;;3.57;;
2011;SDS011;1009;51.436;6.972;2022-12-18T08:35:48;5.70;;;3.53;;
2011;SDS011;1009;51.436;6.972;2022-12-18T08:38:15;5.40;;;4.30;;
2011;SDS011;1009;51.436;6.972;2022-12-18T08:40:42;4.83;;;4.33;;
2011;SDS011;1009;51.436;6.972;2022-12-18T08:43:09;5.13;;;3.57;;
2011;SDS011;1009;51.436;6.972;2022-12-18T08:45:54;5.63;;;4.00;;
2011;SDS011;1009;51.436;6.972;2022-12-18T08:48:22;7.50;;;3.93;;
2011;SDS011;1009;51.436;6.972;2022-12-18T08:50:53;5.73;;;4.47;;
2011;SDS011;1009;51.436;6.972;2022-12-18T08:53:20;7.00;;;4.10;;
2011;SDS011;1009;51.436;6.972;2022-12-18T08:55:47;5.87;;;4.07;;
2011;SDS011;1009;51.436;6.972;2022-12-18T08:58:14;5.50;;;3.90;;
2011;SDS011;1009;51.436;6.972;2022-12-18T09:00:40;5.27;;;4.33;;
2011;SDS011;1009;51.436;6.972;2022-12-18T09:03:10;4.47;;;4.03;;
2011;SDS011;1009;51.436;6.972;2022-12-18T09:05:39;4.70;;;4.00;;
2011;SDS011;1009;51.436;6.972;2022-12-18T09:08:06;6.10;;;4.63;;
2011;SDS011;1009;51.436;6.972;2022-12-18T09:10:32;5.13;;;3.33;;
2011;SDS011;1009;51.436;6.972;2022-12-18T09:12:59;5.20;;;3.50;;
2011;SDS011;1009;51.436;6.972;2022-12-18T09:15:26;7.20;;;4.63;;
2011;SDS011;1009;51.436;6.972;2022-12-18T09:17:52;5.30;;;3.70;;
2011;SDS011;1009;51.436;6.972;2022-12-18T09:20:19;6.93;;;4.03;;
2011;SDS011;1009;51.436;6.972;2022-12-18T09:22:47;4.60;;;3.57;;
2011;SDS011;1009;51.436;6.972;2022-12-18T09:25:14;6.77;;;4.50;;
2011;SDS011;1009;51.436;6.972;2022-12-18T09:27:41;5.23;;;3.67;;
2011;SDS011;1009;51.436;6.972;2022-12-18T09:30:08;4.53;;;3.33;;
2011;SDS011;1009;51.436;6.972;2022-12-18T09:32:35;5.27;;;3.77;;
2011;SDS011;1009;51.436;6.972;2022-12-18T09:35:02;5.47;;;4.17;;
2011;SDS011;1009;51.436;6.972;2022-12-18T09:37:29;5.00;;;3.50;;
2011;SDS011;1009;51.436;6.972;2022-12-18T09:39:57;3.80;;;3.40;;
2011;SDS011;1009;51.436;6.972;2022-12-18T09:42:24;4.77;;;3.47;;
2011;SDS011;1009;51.436;6.972;2022-12-18T09:44:51;4.87;;;3.67;;
2011;SDS011;1009;51.436;6.972;2022-12-18T09:47:21;4.80;;;3.63;;
2011;SDS011;1009;51.436;6.972;2022-12-18T09:49:51;5.00;;;3.80;;
2011;SDS011;1009;51.436;6.972;2022-12-18T09:52:23;5.40;;;4.07;;
2011;SDS011;1009;51.436;6.972;2022-12-18T09:54:55;5.37;;;3.67;;
2011;SDS011;1009;51.436;6.972;2022-12-18T09:57:26;5.80;;;3.53;;
2011;SDS011;1009;51.436;6.972;2022-12-18T09:59:56;5.10;;;3.93;;
2011;SDS011;1009;51.436;6.972;2022-12-18T10:02:29;6.07;;;3.60;;
2011;SDS011;1009;51.436;6.972;2022-12-18T10:05:02;5.60;;;4.30;;
2011;SDS011;1009;51.436;6.972;2022-12-18T10:07:33;3.70;;;3.37;;
2011;SDS011;1009;51.436;6.972;2022-12-18T10:10:12;4.53;;;3.57;;
2011;SDS011;1009;51.436;6.972;2022-12-18T10:12:46;4.27;;;3.10;;
2011;SDS011;1009;51.436;6.972;2022-12-18T10:15:22;5.20;;;4.30;;
2011;SDS011;1009;51.436;6.972;2022-12-18T10:17:54;5.23;;;4.10;;
2011;SDS011;1009;51.436;6.972;2022-12-18T10:20:29;4.10;;;3.70;;
2011;SDS011;1009;51.436;6.972;2022-12-18T10:23:02;4.80;;;3.63;;
2011;SDS011;1009;51.436;6.972;2022-12-18T10:25:38;3.93;;;3.20;;
2011;SDS011;1009;51.436;6.972;2022-12-18T10:28:19;4.53;;;3.70;;
2011;SDS011;1009;51.436;6.972;2022-12-18T10:30:46;3.87;;;3.47;;
2011;SDS011;1009;51.436;6.972;2022-12-18T10:33:13;5.60;;;4.40;;
2011;SDS011;1009;51.436;6.972;2022-12-18T10:35:43;5.50;;;3.77;;
2011;SDS011;1009;51.436;6.972;2022-12-18T10:38:22;5.37;;;3.80;;
2011;SDS011;1009;51.436;6.972;2022-12-18T10:40:52;5.57;;;4.00;;
2011;SDS011;1009;51.436;6.972;2022-12-18T10:43:22;5.33;;;4.20;;
2011;SDS011;1009;51.436;6.972;2022-12-18T10:46:01;3.93;;;3.50;;
2011;SDS011;1009;51.436;6.972;2022-12-18T10:48:39;6.20;;;4.30;;
2011;SDS011;1009;51.436;6.972;2022-12-18T10:51:19;6.73;;;4.00;;
2011;SDS011;1009;51.436;6.972;2022-12-18T10:53:51;5.57;;;4.37;;
2011;SDS011;1009;51.436;6.972;2022-12-18T10:56:22;6.70;;;4.50;;
2011;SDS011;1009;51.436;6.972;2022-12-18T10:58:55;4.77;;;4.27;;
2011;SDS011;1009;51.436;6.972;2022-12-18T11:01:23;5.90;;;4.30;;
2011;SDS011;1009;51.436;6.972;2022-12-18T11:03:58;6.30;;;4.10;;
2011;SDS011;1009;51.436;6.972;2022-12-18T11:06:27;8.00;;;4.90;;
2011;SDS011;1009;51.436;6.972;2022-12-18T11:08:58;6.97;;;4.50;;
2011;SDS011;1009;51.436;6.972;2022-12-18T11:11:27;5.90;;;4.60;;
2011;SDS011;1009;51.436;6.972;2022-12-18T11:13:58;6.67;;;4.33;;
2011;SDS011;1009;51.436;6.972;2022-12-18T11:16:27;6.53;;;4.43;;
2011;SDS011;1009;51.436;6.972;2022-12-18T11:18:57;5.63;;;4.00;;
2011;SDS011;1009;51.436;6.972;2022-12-18T11:21:40;7.93;;;4.70;;
2011;SDS011;1009;51.436;6.972;2022-12-18T11:24:13;6.73;;;4.30;;
2011;SDS011;1009;51.436;6.972;2022-12-18T11:26:47;6.83;;;4.53;;
2011;SDS011;1009;51.436;6.972;2022-12-18T11:29:16;5.30;;;4.17;;
2011;SDS011;1009;51.436;6.972;2022-12-18T11:31:48;7.20;;;4.23;;
2011;SDS011;1009;51.436;6.972;2022-12-18T11:34:16;7.77;;;4.30;;
2011;SDS011;1009;51.436;6.972;2022-12-18T11:36:48;7.07;;;4.17;;
2011;SDS011;1009;51.436;6.972;2022-12-18T11:39:16;11.83;;;4.40;;
2011;SDS011;1009;51.436;6.972;2022-12-18T11:41:49;6.60;;;4.30;;
2011;SDS011;1009;51.436;6.972;2022-12-18T11:44:35;5.83;;;4.10;;
2011;SDS011;1009;51.436;6.972;2022-12-18T11:47:09;6.13;;;4.20;;
2011;SDS011;1009;51.436;6.972;2022-12-18T11:49:43;7.57;;;5.07;;
2011;SDS011;1009;51.436;6.972;2022-12-18T11:52:14;7.60;;;6.00;;
2011;SDS011;1009;51.436;6.972;2022-12-18T11:54:45;11.77;;;8.13;;
2011;SDS011;1009;51.436;6.972;2022-12-18T11:57:15;10.93;;;8.07;;
2011;SDS011;1009;51.436;6.972;2022-12-18T11:59:54;11.63;;;7.43;;
2011;SDS011;1009;51.436;6.972;2022-12-18T12:02:32;11.77;;;8.30;;
2011;SDS011;1009;51.436;6.972;2022-12-18T12:05:18;11.60;;;9.10;;
2011;SDS011;1009;51.436;6.972;2022-12-18T12:07:54;10.90;;;8.47;;
2011;SDS011;1009;51.436;6.972;2022-12-18T12:10:30;13.80;;;9.23;;
2011;SDS011;1009;51.436;6.972;2022-12-18T12:13:13;10.20;;;8.70;;
2011;SDS011;1009;51.436;6.972;2022-12-18T12:15:54;10.13;;;8.23;;
2011;SDS011;1009;51.436;6.972;2022-12-18T12:18:32;9.13;;;6.80;;
2011;SDS011;1009;51.436;6.972;2022-12-18T12:21:10;6.80;;;5.57;;
2011;SDS011;1009;51.436;6.972;2022-12-18T12:23:50;7.80;;;6.13;;
2011;SDS011;1009;51.436;6.972;2022-12-18T12:26:26;7.13;;;5.40;;
2011;SDS011;1009;51.436;6.972;2022-12-18T12:29:04;6.80;;;5.67;;
2011;SDS011;1009;51.436;6.972;2022-12-18T12:31:47;5.80;;;5.17;;
2011;SDS011;1009;51.436;6.972;2022-12-18T12:34:25;9.73;;;6.00;;
2011;SDS011;1009;51.436;6.972;2022-12-18T12:37:00;7.97;;;6.60;;
2011;SDS011;1009;51.436;6.972;2022-12-18T12:39:37;9.03;;;5.80;;
2011;SDS011;1009;51.436;6.972;2022-12-18T12:42:08;8.37;;;6.20;;
2011;SDS011;1009;51.436;6.972;2022-12-18T12:45:01;6.97;;;5.20;;
2011;SDS011;1009;51.436;6.972;2022-12-18T12:47:32;10.07;;;6.43;;
2011;SDS011;1009;51.436;6.972;2022-12-18T12:50:02;7.73;;;6.13;;
2011;SDS011;1009;51.436;6.972;2022-12-18T12:52:32;8.40;;;6.17;;
2011;SDS011;1009;51.436;6.972;2022-12-18T12:55:04;7.70;;;6.73;;
2011;SDS011;1009;51.436;6.972;2022-12-18T12:57:40;9.33;;;6.27;;
2011;SDS011;1009;51.436;6.972;2022-12-18T13:00:13;9.60;;;6.50;;
2011;SDS011;1009;51.436;6.972;2022-12-18T13:02:43;10.07;;;6.60;;
2011;SDS011;1009;51.436;6.972;2022-12-18T13:05:17;7.57;;;5.57;;
2011;SDS011;1009;51.436;6.972;2022-12-18T13:07:49;8.50;;;5.90;;
2011;SDS011;1009;51.436;6.972;2022-12-18T13:10:25;8.80;;;6.40;;
2011;SDS011;1009;51.436;6.972;2022-12-18T13:12:57;11.17;;;7.63;;
2011;SDS011;1009;51.436;6.972;2022-12-18T13:15:33;10.63;;;6.50;;
2011;SDS011;1009;51.436;6.972;2022-12-18T13:18:06;8.93;;;7.13;;
2011;SDS011;1009;51.436;6.972;2022-12-18T13:20:40;9.83;;;7.77;;
2011;SDS011;1009;51.436;6.972;2022-12-18T13:29:04;11.90;;;7.80;;
2011;SDS011;1009;51.436;6.972;2022-12-18T13:34:36;12.10;;;8.57;;
2011;SDS011;1009;51.436;6.972;2022-12-18T13:43:30;10.33;;;7.63;;
2011;SDS011;1009;51.436;6.972;2022-12-18T13:46:04;9.97;;;7.70;;
2011;SDS011;1009;51.436;6.972;2022-12-18T13:48:47;8.93;;;7.90;;
2011;SDS011;1009;51.436;6.972;2022-12-18T13:51:18;10.23;;;8.20;;
2011;SDS011;1009;51.436;6.972;2022-12-18T13:53:47;10.43;;;8.00;;
2011;SDS011;1009;51.436;6.972;2022-12-18T13:56:16;9.63;;;8.10;;
2011;SDS011;1009;51.436;6.972;2022-12-18T13:58:43;12.97;;;9.70;;
2011;SDS011;1009;51.436;6.972;2022-12-18T14:01:21;10.80;;;8.77;;
2011;SDS011;1009;51.436;6.972;2022-12-18T14:03:48;10.87;;;8.40;;
2011;SDS011;1009;51.436;6.972;2022-12-18T14:06:15;12.50;;;9.03;;
2011;SDS011;1009;51.436;6.972;2022-12-18T14:08:44;13.07;;;9.67;;
2011;SDS011;1009;51.436;6.972;2022-12-18T14:11:18;10.87;;;8.60;;
2011;SDS011;1009;51.436;6.972;2022-12-18T14:13:47;10.40;;;8.70;;
2011;SDS011;1009;51.436;6.972;2022-12-18T14:16:15;13.87;;;9.73;;
2011;SDS011;1009;51.436;6.972;2022-12-18T14:18:44;13.53;;;9.40;;
2011;SDS011;1009;51.436;6.972;2022-12-18T14:21:19;10.33;;;8.97;;
2011;SDS011;1009;51.436;6.972;2022-12-18T14:23:50;12.73;;;10.07;;
2011;SDS011;1009;51.436;6.972;2022-12-18T14:26:30;10.43;;;8.60;;
2011;SDS011;1009;51.436;6.972;2022-12-18T14:28:58;12.93;;;10.60;;
2011;SDS011;1009;51.436;6.972;2022-12-18T14:31:27;11.70;;;8.90;;
2011;SDS011;1009;51.436;6.972;2022-12-18T14:33:55;12.07;;;9.97;;
2011;SDS011;1009;51.436;6.972;2022-12-18T14:36:23;13.70;;;9.90;;
2011;SDS011;1009;51.436;6.972;2022-12-18T14:38:53;13.50;;;9.40;;
2011;SDS011;1009;51.436;6.972;2022-12-18T14:41:21;13.47;;;9.97;;
2011;SDS011;1009;51.436;6.972;2022-12-18T14:43:49;14.10;;;11.47;;
2011;SDS011;1009;51.436;6.972;2022-12-18T14:49:03;14.80;;;10.63;;
2011;SDS011;1009;51.436;6.972;2022-12-18T14:51:42;14.20;;;10.20;;
2011;SDS011;1009;51.436;6.972;2022-12-18T14:54:15;18.23;;;11.43;;
2011;SDS011;1009;51.436;6.972;2022-12-18T14:56:44;14.23;;;10.30;;
2011;SDS011;1009;51.436;6.972;2022-12-18T14:59:13;13.30;;;10.10;;
2011;SDS011;1009;51.436;6.972;2022-12-18T15:01:44;13.00;;;9.70;;
2011;SDS011;1009;51.436;6.972;2022-12-18T15:04:23;14.20;;;10.80;;
2011;SDS011;1009;51.436;6.972;2022-12-18T15:07:02;15.50;;;10.90;;
2011;SDS011;1009;51.436;6.972;2022-12-18T15:09:32;14.50;;;10.63;;
2011;SDS011;1009;51.436;6.972;2022-12-18T15:12:00;13.80;;;10.90;;
2011;SDS011;1009;51.436;6.972;2022-12-18T15:14:33;15.80;;;11.50;;
2011;SDS011;1009;51.436;6.972;2022-12-18T15:17:02;13.93;;;11.03;;
2011;SDS011;1009;51.436;6.972;2022-12-18T15:19:33;14.57;;;11.47;;
2011;SDS011;1009;51.436;6.972;2022-12-18T15:22:13;14.37;;;11.00;;
2011;SDS011;1009;51.436;6.972;2022-12-18T15:24:47;14.27;;;10.60;;
2011;SDS011;1009;51.436;6.972;2022-12-18T15:27:21;13.53;;;10.90;;
2011;SDS011;1009;51.436;6.972;2022-12-18T15:32:46;17.60;;;12.33;;
2011;SDS011;1009;51.436;6.972;2022-12-18T15:35:16;16.63;;;12.33;;
2011;SDS011;1009;51.436;6.972;2022-12-18T15:37:44;15.30;;;12.03;;
2011;SDS011;1009;51.436;6.972;2022-12-18T15:40:13;15.43;;;12.70;;
2011;SDS011;1009;51.436;6.972;2022-12-18T15:42:41;16.47;;;12.93;;